Contship Sun — D5NF3 — position and weather

sailwx.info

Track history (hours):
 
Tides and Currents Weather Stations Pressure Air Temp Water Temp Dewpoint Dewpoint Depression Visibility Wind Speed Wind Dir Waves Ship Positions

Contship Sun

Last reported at 2018-Apr-20 02:54 UTC. Time now 2018-Apr-21 13:46 UTC.
Position N 37°13' E 023°42'.

Length 139 m; draft 6.6 m.

Type: Cargo ship. MMSI: 636017894.

Date/timePositionNaut miles runAvg speedWind from/ knotsBaromVisibWave heightAir tempDewpointWater temp
2018-Apr-20 02:54N 37°13' E 023°42'616.0
2018-Apr-20 02:30N 37°20' E 023°42'815.9
2018-Apr-20 02:01N 37°27' E 023°43'815.8
2018-Apr-20 01:30N 37°35' E 023°42'815.1
2018-Apr-20 01:00N 37°43' E 023°41'815.8
2018-Apr-20 00:31N 37°50' E 023°36'4 8.3
2018-Apr-19 23:59N 37°54' E 023°34'0 0.2
2018-Apr-19 23:30N 37°54' E 023°34'0 0.1
2018-Apr-19 22:59N 37°54' E 023°34'0 0.1
2018-Apr-19 22:31N 37°54' E 023°34'0 0.0
2018-Apr-19 21:59N 37°54' E 023°34'0 0.1
2018-Apr-19 21:29N 37°54' E 023°34'0 0.0
2018-Apr-19 20:59N 37°54' E 023°34'0 0.0
2018-Apr-19 20:29N 37°54' E 023°34'0 0.0
2018-Apr-19 19:59N 37°54' E 023°34'0 0.0
2018-Apr-19 19:31N 37°54' E 023°34'0 0.0
2018-Apr-19 18:59N 37°54' E 023°34'0 0.0
2018-Apr-19 18:29N 37°54' E 023°34'0 0.0
2018-Apr-19 17:58N 37°54' E 023°34'0 0.1
2018-Apr-19 17:30N 37°54' E 023°34'0 0.0
2018-Apr-19 17:01N 37°54' E 023°34'0 0.6
2018-Apr-19 16:30N 37°54' E 023°34'3 5.8
2018-Apr-19 16:01N 37°56' E 023°36'2 3.3
2018-Apr-19 15:30N 37°57' E 023°36'0 0.0
2018-Apr-19 14:59N 37°57' E 023°36'0 0.0
2018-Apr-19 14:30N 37°57' E 023°36'0 0.0
2018-Apr-19 13:56N 37°57' E 023°36'0 0.0
2018-Apr-19 13:29N 37°57' E 023°36'0 0.0
2018-Apr-19 12:59N 37°57' E 023°36'0 0.0
2018-Apr-19 12:29N 37°57' E 023°36'0 0.0
2018-Apr-19 12:00N 37°57' E 023°36'0 0.0
2018-Apr-19 11:30N 37°57' E 023°36'0 0.0
2018-Apr-19 11:01N 37°57' E 023°36'0 0.0
2018-Apr-19 10:29N 37°57' E 023°36'0 0.0
2018-Apr-19 09:56N 37°57' E 023°36'0 0.0
2018-Apr-19 09:29N 37°57' E 023°36'0 0.0
2018-Apr-19 08:59N 37°57' E 023°36'0 0.0
2018-Apr-19 08:27N 37°57' E 023°36'0 0.0
2018-Apr-19 07:59N 37°57' E 023°36'0 0.0
2018-Apr-19 07:30N 37°57' E 023°36'0 0.0
2018-Apr-19 06:58N 37°57' E 023°36'0 0.0
2018-Apr-19 06:28N 37°57' E 023°36'0 0.0
2018-Apr-19 05:59N 37°57' E 023°36'0 0.6
2018-Apr-19 05:31N 37°57' E 023°36'3 5.3
2018-Apr-19 05:00N 37°55' E 023°36'1 1.1
2018-Apr-19 04:30N 37°54' E 023°36'1 1.3
2018-Apr-19 04:01N 37°54' E 023°35'0 0.3
2018-Apr-19 03:30N 37°54' E 023°35'1 2.7
2018-Apr-19 03:00N 37°52' E 023°34'2 3.5
2018-Apr-19 02:31N 37°51' E 023°32'0 0.3
2018-Apr-19 01:59N 37°51' E 023°33'0 0.0
2018-Apr-19 01:30N 37°51' E 023°32'0 0.0
2018-Apr-19 01:00N 37°51' E 023°32'0 0.0
2018-Apr-19 00:30N 37°51' E 023°32'0 0.0
2018-Apr-18 23:58N 37°51' E 023°32'0 0.0
2018-Apr-18 23:28N 37°52' E 023°32'0 0.0
2018-Apr-18 23:00N 37°52' E 023°32'0 0.1
2018-Apr-18 22:28N 37°52' E 023°32'0 0.0
2018-Apr-18 21:58N 37°52' E 023°32'0 0.1
2018-Apr-18 21:30N 37°52' E 023°32'0 0.1
2018-Apr-18 20:55N 37°52' E 023°32'0 0.0
2018-Apr-18 20:30N 37°52' E 023°32'0 0.0
2018-Apr-18 19:49N 37°52' E 023°32'0 0.1
2018-Apr-18 19:30N 37°52' E 023°32'0 0.0
2018-Apr-18 18:59N 37°52' E 023°32'0 0.0
2018-Apr-18 18:31N 37°52' E 023°32'0 0.0
2018-Apr-18 17:59N 37°52' E 023°32'0 0.0
2018-Apr-18 17:26N 37°52' E 023°32'0 0.0
2018-Apr-18 16:57N 37°52' E 023°32'0 0.1
2018-Apr-18 16:27N 37°52' E 023°32'0 0.0
2018-Apr-18 15:57N 37°52' E 023°32'0 0.0
2018-Apr-18 15:31N 37°52' E 023°32'0 0.2
2018-Apr-18 15:00N 37°52' E 023°33'0 0.1
2018-Apr-18 14:27N 37°52' E 023°33'0 0.1
2018-Apr-18 13:57N 37°52' E 023°33'0 0.0
2018-Apr-18 13:27N 37°52' E 023°33'0 0.2
2018-Apr-18 13:00N 37°52' E 023°33'0 0.1
2018-Apr-18 12:27N 37°52' E 023°33'0 0.1
2018-Apr-18 11:59N 37°52' E 023°33'0 0.0
2018-Apr-18 11:27N 37°52' E 023°33'0 0.1
2018-Apr-18 11:00N 37°52' E 023°33'0 0.0
2018-Apr-18 10:31N 37°52' E 023°33'0 0.0
2018-Apr-18 10:01N 37°52' E 023°33'1 1.9
2018-Apr-18 09:30N 37°52' E 023°34'5 9.5
2018-Apr-18 09:01N 37°50' E 023°39'713.5
2018-Apr-18 08:31N 37°44' E 023°43'713.6
2018-Apr-18 08:00N 37°39' E 023°49'713.3
2018-Apr-18 07:30N 37°35' E 023°56'  
2018-Apr-13 23:54N 32°40' E 014°14'0 0.0
2018-Apr-13 23:16N 32°40' E 014°14'0 0.0
2018-Apr-13 22:59N 32°40' E 014°14'0 0.0
2018-Apr-13 22:26N 32°40' E 014°14'0 0.0
2018-Apr-13 22:01N 32°40' E 014°14'0 0.0
2018-Apr-13 21:29N 32°40' E 014°14'0 0.0
2018-Apr-13 14:39N 32°40' E 014°14'0 0.0
2018-Apr-13 14:30N 32°40' E 014°14'  
2018-Apr-11 03:04N 33°19' E 014°22'4715.1
2018-Apr-10 23:59N 34°05' E 014°26'613.4
2018-Apr-10 23:30N 34°12' E 014°26'1116.5
2018-Apr-10 22:52N 34°22' E 014°27'412.2
2018-Apr-10 22:30N 34°27' E 014°28'713.4
2018-Apr-10 21:58N 34°34' E 014°28'2315.0
2018-Apr-10 20:24N 34°57' E 014°31'512.0
2018-Apr-10 20:00N 35°02' E 014°31'714.6
2018-Apr-10 19:29N 35°09' E 014°31'714.5
2018-Apr-10 19:00N 35°16' E 014°32'813.8
2018-Apr-10 18:24N 35°25' E 014°33'615.1
2018-Apr-10 17:59N 35°31' E 014°33'713.4
2018-Apr-10 17:29N 35°38' E 014°33'814.9
2018-Apr-10 16:56N 35°46' E 014°35'4 9.2
2018-Apr-10 16:29N 35°49' E 014°32'0 0.3
2018-Apr-10 15:53N 35°49' E 014°32'0 0.0
2018-Apr-10 14:56N 35°49' E 014°32'0 0.0
2018-Apr-10 14:20N 35°49' E 014°32'  
Track history (hours):
 
Tides and Currents Weather Stations Pressure Air Temp Water Temp Dewpoint Dewpoint Depression Visibility Wind Speed Wind Dir Waves Ship Positions

Contship Sun

Last reported at 2018-Apr-20 02:54 UTC. Time now 2018-Apr-21 13:46 UTC.
Position N 37°13' E 023°42'.

Length 139 m; draft 6.6 m.

Type: Cargo ship. MMSI: 636017894.

Date/timePositionNaut miles runAvg speedWind from/ knotsBaromVisibWave heightAir tempDewpointWater temp
2018-Apr-20 02:54N 37°13' E 023°42'616.0
2018-Apr-20 02:30N 37°20' E 023°42'815.9
2018-Apr-20 02:01N 37°27' E 023°43'815.8
2018-Apr-20 01:30N 37°35' E 023°42'815.1
2018-Apr-20 01:00N 37°43' E 023°41'815.8
2018-Apr-20 00:31N 37°50' E 023°36'4 8.3
2018-Apr-19 23:59N 37°54' E 023°34'0 0.2
2018-Apr-19 23:30N 37°54' E 023°34'0 0.1
2018-Apr-19 22:59N 37°54' E 023°34'0 0.1
2018-Apr-19 22:31N 37°54' E 023°34'0 0.0
2018-Apr-19 21:59N 37°54' E 023°34'0 0.1
2018-Apr-19 21:29N 37°54' E 023°34'0 0.0
2018-Apr-19 20:59N 37°54' E 023°34'0 0.0
2018-Apr-19 20:29N 37°54' E 023°34'0 0.0
2018-Apr-19 19:59N 37°54' E 023°34'0 0.0
2018-Apr-19 19:31N 37°54' E 023°34'0 0.0
2018-Apr-19 18:59N 37°54' E 023°34'0 0.0
2018-Apr-19 18:29N 37°54' E 023°34'0 0.0
2018-Apr-19 17:58N 37°54' E 023°34'0 0.1
2018-Apr-19 17:30N 37°54' E 023°34'0 0.0
2018-Apr-19 17:01N 37°54' E 023°34'0 0.6
2018-Apr-19 16:30N 37°54' E 023°34'3 5.8
2018-Apr-19 16:01N 37°56' E 023°36'2 3.3
2018-Apr-19 15:30N 37°57' E 023°36'0 0.0
2018-Apr-19 14:59N 37°57' E 023°36'0 0.0
2018-Apr-19 14:30N 37°57' E 023°36'0 0.0
2018-Apr-19 13:56N 37°57' E 023°36'0 0.0
2018-Apr-19 13:29N 37°57' E 023°36'0 0.0
2018-Apr-19 12:59N 37°57' E 023°36'0 0.0
2018-Apr-19 12:29N 37°57' E 023°36'0 0.0
2018-Apr-19 12:00N 37°57' E 023°36'0 0.0
2018-Apr-19 11:30N 37°57' E 023°36'0 0.0
2018-Apr-19 11:01N 37°57' E 023°36'0 0.0
2018-Apr-19 10:29N 37°57' E 023°36'0 0.0
2018-Apr-19 09:56N 37°57' E 023°36'0 0.0
2018-Apr-19 09:29N 37°57' E 023°36'0 0.0
2018-Apr-19 08:59N 37°57' E 023°36'0 0.0
2018-Apr-19 08:27N 37°57' E 023°36'0 0.0
2018-Apr-19 07:59N 37°57' E 023°36'0 0.0
2018-Apr-19 07:30N 37°57' E 023°36'0 0.0
2018-Apr-19 06:58N 37°57' E 023°36'0 0.0
2018-Apr-19 06:28N 37°57' E 023°36'0 0.0
2018-Apr-19 05:59N 37°57' E 023°36'0 0.6
2018-Apr-19 05:31N 37°57' E 023°36'3 5.3
2018-Apr-19 05:00N 37°55' E 023°36'1 1.1
2018-Apr-19 04:30N 37°54' E 023°36'1 1.3
2018-Apr-19 04:01N 37°54' E 023°35'0 0.3
2018-Apr-19 03:30N 37°54' E 023°35'1 2.7
2018-Apr-19 03:00N 37°52' E 023°34'2 3.5
2018-Apr-19 02:31N 37°51' E 023°32'0 0.3
2018-Apr-19 01:59N 37°51' E 023°33'0 0.0
2018-Apr-19 01:30N 37°51' E 023°32'0 0.0
2018-Apr-19 01:00N 37°51' E 023°32'0 0.0
2018-Apr-19 00:30N 37°51' E 023°32'0 0.0
2018-Apr-18 23:58N 37°51' E 023°32'0 0.0
2018-Apr-18 23:28N 37°52' E 023°32'0 0.0
2018-Apr-18 23:00N 37°52' E 023°32'0 0.1
2018-Apr-18 22:28N 37°52' E 023°32'0 0.0
2018-Apr-18 21:58N 37°52' E 023°32'0 0.1
2018-Apr-18 21:30N 37°52' E 023°32'0 0.1
2018-Apr-18 20:55N 37°52' E 023°32'0 0.0
2018-Apr-18 20:30N 37°52' E 023°32'0 0.0
2018-Apr-18 19:49N 37°52' E 023°32'0 0.1
2018-Apr-18 19:30N 37°52' E 023°32'0 0.0
2018-Apr-18 18:59N 37°52' E 023°32'0 0.0
2018-Apr-18 18:31N 37°52' E 023°32'0 0.0
2018-Apr-18 17:59N 37°52' E 023°32'0 0.0
2018-Apr-18 17:26N 37°52' E 023°32'0 0.0
2018-Apr-18 16:57N 37°52' E 023°32'0 0.1
2018-Apr-18 16:27N 37°52' E 023°32'0 0.0
2018-Apr-18 15:57N 37°52' E 023°32'0 0.0
2018-Apr-18 15:31N 37°52' E 023°32'0 0.2
2018-Apr-18 15:00N 37°52' E 023°33'0 0.1
2018-Apr-18 14:27N 37°52' E 023°33'0 0.1
2018-Apr-18 13:57N 37°52' E 023°33'0 0.0
2018-Apr-18 13:27N 37°52' E 023°33'0 0.2
2018-Apr-18 13:00N 37°52' E 023°33'0 0.1
2018-Apr-18 12:27N 37°52' E 023°33'0 0.1
2018-Apr-18 11:59N 37°52' E 023°33'0 0.0
2018-Apr-18 11:27N 37°52' E 023°33'0 0.1
2018-Apr-18 11:00N 37°52' E 023°33'0 0.0
2018-Apr-18 10:31N 37°52' E 023°33'0 0.0
2018-Apr-18 10:01N 37°52' E 023°33'1 1.9
2018-Apr-18 09:30N 37°52' E 023°34'5 9.5
2018-Apr-18 09:01N 37°50' E 023°39'713.5
2018-Apr-18 08:31N 37°44' E 023°43'713.6
2018-Apr-18 08:00N 37°39' E 023°49'713.3
2018-Apr-18 07:30N 37°35' E 023°56'  
2018-Apr-13 23:54N 32°40' E 014°14'0 0.0
2018-Apr-13 23:16N 32°40' E 014°14'0 0.0
2018-Apr-13 22:59N 32°40' E 014°14'0 0.0
2018-Apr-13 22:26N 32°40' E 014°14'0 0.0
2018-Apr-13 22:01N 32°40' E 014°14'0 0.0
2018-Apr-13 21:29N 32°40' E 014°14'0 0.0
2018-Apr-13 14:39N 32°40' E 014°14'0 0.0
2018-Apr-13 14:30N 32°40' E 014°14'  
2018-Apr-11 03:04N 33°19' E 014°22'4715.1
2018-Apr-10 23:59N 34°05' E 014°26'613.4
2018-Apr-10 23:30N 34°12' E 014°26'1116.5
2018-Apr-10 22:52N 34°22' E 014°27'412.2
2018-Apr-10 22:30N 34°27' E 014°28'713.4
2018-Apr-10 21:58N 34°34' E 014°28'2315.0
2018-Apr-10 20:24N 34°57' E 014°31'512.0
2018-Apr-10 20:00N 35°02' E 014°31'714.6
2018-Apr-10 19:29N 35°09' E 014°31'714.5
2018-Apr-10 19:00N 35°16' E 014°32'813.8
2018-Apr-10 18:24N 35°25' E 014°33'615.1
2018-Apr-10 17:59N 35°31' E 014°33'713.4
2018-Apr-10 17:29N 35°38' E 014°33'814.9
2018-Apr-10 16:56N 35°46' E 014°35'4 9.2
2018-Apr-10 16:29N 35°49' E 014°32'0 0.3
2018-Apr-10 15:53N 35°49' E 014°32'0 0.0
2018-Apr-10 14:56N 35°49' E 014°32'0 0.0
2018-Apr-10 14:20N 35°49' E 014°32'  

Dump ship's entire track history